createdAt,value
2023-01-17T00:01:12.800Z,6.30
2023-01-17T00:03:57.225Z,6.29
2023-01-17T00:06:46.036Z,6.29
2023-01-17T00:09:34.635Z,6.27
2023-01-17T00:12:05.594Z,6.23
2023-01-17T00:14:36.051Z,6.19
2023-01-17T00:17:06.479Z,6.15
2023-01-17T00:19:54.491Z,6.12
2023-01-17T00:22:44.149Z,6.07
2023-01-17T00:25:34.378Z,6.01
2023-01-17T00:28:04.588Z,5.96
2023-01-17T00:30:34.267Z,5.93
2023-01-17T00:33:04.043Z,5.91
2023-01-17T00:35:34.587Z,5.86
2023-01-17T00:38:06.646Z,5.82
2023-01-17T00:40:37.672Z,5.79
2023-01-17T00:43:26.257Z,5.77
2023-01-17T00:46:15.049Z,5.73
2023-01-17T00:49:03.964Z,5.70
2023-01-17T00:51:53.584Z,5.74
2023-01-17T00:54:42.066Z,5.78
2023-01-17T00:57:30.131Z,5.80
2023-01-17T01:00:18.033Z,5.82
2023-01-17T01:03:06.304Z,5.81
2023-01-17T01:05:55.190Z,5.83
2023-01-17T01:08:45.476Z,5.82
2023-01-17T01:11:35.313Z,5.81
2023-01-17T01:14:25.201Z,5.79
2023-01-17T01:17:13.132Z,5.78
2023-01-17T01:20:01.577Z,5.75
2023-01-17T01:22:49.663Z,5.68
2023-01-17T01:25:38.064Z,5.64
2023-01-17T01:28:29.626Z,5.60
2023-01-17T01:31:19.563Z,5.56
2023-01-17T01:33:51.737Z,5.52
2023-01-17T01:36:22.794Z,5.51
2023-01-17T01:38:54.616Z,5.48
2023-01-17T01:41:25.477Z,5.44
2023-01-17T01:43:57.015Z,5.42
2023-01-17T01:46:33.085Z,5.47
2023-01-17T01:49:07.202Z,5.50
2023-01-17T01:51:42.272Z,5.52
2023-01-17T01:54:16.062Z,5.56
2023-01-17T01:56:48.425Z,5.58
2023-01-17T01:59:22.170Z,5.61
2023-01-17T02:01:57.004Z,5.62
2023-01-17T02:04:28.719Z,5.60
2023-01-17T02:07:06.751Z,5.57
2023-01-17T02:09:37.558Z,5.56
2023-01-17T02:12:09.609Z,5.56
2023-01-17T02:14:40.156Z,5.56
2023-01-17T02:17:21.520Z,5.55
2023-01-17T02:20:42.493Z,5.51
2023-01-17T02:23:56.462Z,5.51
2023-01-17T02:26:55.495Z,5.52
2023-01-17T02:29:54.835Z,5.53
2023-01-17T02:32:36.784Z,5.52
2023-01-17T02:35:14.851Z,5.51
2023-01-17T02:37:52.140Z,5.48
2023-01-17T02:40:28.028Z,5.43
2023-01-17T02:43:02.807Z,5.38
2023-01-17T02:45:33.284Z,5.35
2023-01-17T02:48:04.656Z,5.33
2023-01-17T02:50:48.898Z,5.32
2023-01-17T02:53:38.054Z,5.38
2023-01-17T02:56:19.180Z,5.40
2023-01-17T02:59:05.654Z,5.43
2023-01-17T03:01:46.400Z,5.46
2023-01-17T03:04:22.074Z,5.49
2023-01-17T03:06:56.342Z,5.53
2023-01-17T03:09:29.074Z,5.58
2023-01-17T03:12:00.643Z,5.62
2023-01-17T03:14:34.477Z,5.65
2023-01-17T03:17:05.181Z,5.68
2023-01-17T03:19:35.717Z,5.70
2023-01-17T03:22:06.412Z,5.70
2023-01-17T03:24:36.861Z,5.71
2023-01-17T03:27:07.301Z,5.72
2023-01-17T03:29:37.729Z,5.73
2023-01-17T03:32:08.744Z,5.72
2023-01-17T03:34:39.172Z,5.70
2023-01-17T03:37:09.716Z,5.68
2023-01-17T03:39:40.134Z,5.63
2023-01-17T03:42:10.587Z,5.59
2023-01-17T03:44:41.010Z,5.56
2023-01-17T03:47:12.449Z,5.49
2023-01-17T03:49:43.354Z,5.44
2023-01-17T03:52:13.754Z,5.40
2023-01-17T03:54:44.351Z,5.35
2023-01-17T03:57:15.810Z,5.32
2023-01-17T03:59:47.442Z,5.30
2023-01-17T04:02:17.916Z,5.27
2023-01-17T04:04:48.885Z,5.26
2023-01-17T04:07:19.411Z,5.25
2023-01-17T04:09:49.858Z,5.23
2023-01-17T04:12:20.598Z,5.23
2023-01-17T04:14:51.100Z,5.21
2023-01-17T04:17:22.175Z,5.20
2023-01-17T04:19:52.858Z,5.18
2023-01-17T04:22:23.292Z,5.22
2023-01-17T04:24:53.772Z,5.24
2023-01-17T04:27:24.184Z,5.24
2023-01-17T04:29:54.688Z,5.26
2023-01-17T04:32:25.105Z,5.26
2023-01-17T04:34:55.586Z,5.27
2023-01-17T04:37:26.058Z,5.26
2023-01-17T04:39:56.537Z,5.25
2023-01-17T04:42:26.962Z,5.24
2023-01-17T04:44:57.451Z,5.20
2023-01-17T04:47:27.955Z,5.16
2023-01-17T04:49:58.455Z,5.14
2023-01-17T04:52:28.876Z,5.11
2023-01-17T04:54:59.386Z,5.08
2023-01-17T04:57:29.857Z,5.05
2023-01-17T05:00:00.407Z,5.04
2023-01-17T05:02:30.907Z,5.02
2023-01-17T05:05:01.471Z,4.99
2023-01-17T05:07:31.892Z,4.95
2023-01-17T05:10:02.300Z,4.92
2023-01-17T05:12:32.773Z,4.91
2023-01-17T05:15:03.248Z,4.90
2023-01-17T05:17:33.682Z,4.88
2023-01-17T05:20:04.704Z,4.85
2023-01-17T05:22:35.113Z,4.83
2023-01-17T05:25:06.066Z,4.80
2023-01-17T05:27:36.572Z,4.78
2023-01-17T05:30:09.007Z,4.76
2023-01-17T05:32:39.453Z,4.73
2023-01-17T05:35:11.401Z,4.69
2023-01-17T05:37:48.881Z,4.66
2023-01-17T05:40:21.711Z,4.62
2023-01-17T05:42:54.203Z,4.59
2023-01-17T05:45:28.954Z,4.57
2023-01-17T05:48:00.321Z,4.55
2023-01-17T05:50:33.191Z,4.58
2023-01-17T05:53:05.867Z,4.62
2023-01-17T05:55:37.317Z,4.67
2023-01-17T05:58:09.747Z,4.73
2023-01-17T06:00:40.215Z,4.78
2023-01-17T06:03:11.416Z,4.82
2023-01-17T06:05:41.995Z,4.85
2023-01-17T06:08:12.628Z,4.89
2023-01-17T06:10:45.235Z,4.91
2023-01-17T06:13:20.963Z,4.94
2023-01-17T06:15:51.697Z,4.95
2023-01-17T06:18:22.152Z,4.94
2023-01-17T06:20:56.321Z,4.93
2023-01-17T06:23:27.075Z,4.94
2023-01-17T06:25:57.697Z,4.95
2023-01-17T06:28:28.302Z,4.95
2023-01-17T06:31:00.010Z,4.96
2023-01-17T06:33:30.438Z,4.96
2023-01-17T06:36:00.933Z,4.95
2023-01-17T06:38:31.377Z,4.95
2023-01-17T06:41:04.488Z,4.93
2023-01-17T06:43:35.003Z,4.92
2023-01-17T06:46:05.714Z,4.90
2023-01-17T06:48:36.129Z,4.89
2023-01-17T06:51:07.002Z,4.89
2023-01-17T06:53:37.717Z,4.89
2023-01-17T06:56:08.838Z,4.88
2023-01-17T06:58:39.356Z,4.88
2023-01-17T07:01:12.104Z,4.88
2023-01-17T07:03:42.844Z,4.88
2023-01-17T07:06:13.456Z,4.88
2023-01-17T07:08:43.891Z,4.87
2023-01-17T07:11:14.603Z,4.88
2023-01-17T07:13:45.012Z,4.89
2023-01-17T07:16:15.469Z,4.89
2023-01-17T07:18:45.876Z,4.89
2023-01-17T07:21:17.335Z,4.89
2023-01-17T07:23:48.252Z,4.89
2023-01-17T07:26:19.531Z,4.90
2023-01-17T07:28:50.014Z,4.90
2023-01-17T07:31:20.501Z,4.91
2023-01-17T07:33:50.928Z,4.91
2023-01-17T07:36:22.259Z,4.92
2023-01-17T07:38:52.718Z,4.93
2023-01-17T07:41:23.176Z,4.94
2023-01-17T07:43:56.197Z,4.96
2023-01-17T07:46:26.988Z,4.98
2023-01-17T07:48:57.522Z,5.00
2023-01-17T07:51:27.920Z,5.02
2023-01-17T07:53:58.398Z,5.04
2023-01-17T07:56:29.166Z,5.06
2023-01-17T07:58:59.689Z,5.08
2023-01-17T08:01:30.255Z,5.09
2023-01-17T08:04:00.884Z,5.12
2023-01-17T08:06:31.796Z,5.16
2023-01-17T08:09:02.319Z,5.20
2023-01-17T08:11:32.787Z,5.23
2023-01-17T08:14:03.286Z,5.26
2023-01-17T08:16:33.706Z,5.29
2023-01-17T08:19:04.249Z,5.31
2023-01-17T08:21:34.670Z,5.34
2023-01-17T08:24:05.491Z,5.37
2023-01-17T08:26:36.232Z,5.40
2023-01-17T08:29:06.712Z,5.44
2023-01-17T08:31:37.929Z,5.49
2023-01-17T08:34:08.452Z,5.53
2023-01-17T08:36:38.862Z,5.59
2023-01-17T08:39:09.292Z,5.65
2023-01-17T08:41:40.113Z,5.71
2023-01-17T08:44:10.980Z,5.76
2023-01-17T08:46:44.176Z,5.82
2023-01-17T08:49:15.097Z,5.87
2023-01-17T08:51:45.555Z,5.91
2023-01-17T08:54:16.664Z,5.95
2023-01-17T08:56:47.678Z,5.98
2023-01-17T08:59:18.408Z,6.02
2023-01-17T09:01:49.018Z,6.06
2023-01-17T09:04:19.612Z,6.12
2023-01-17T09:06:50.205Z,6.18
2023-01-17T09:09:20.675Z,6.21
2023-01-17T09:11:51.135Z,6.25
2023-01-17T09:14:21.911Z,6.31
2023-01-17T09:16:52.354Z,6.36
2023-01-17T09:19:22.829Z,6.41
2023-01-17T09:21:53.245Z,6.46
2023-01-17T09:24:23.702Z,6.51
2023-01-17T09:26:54.132Z,6.54
2023-01-17T09:29:24.706Z,6.58
2023-01-17T09:31:55.150Z,6.63
2023-01-17T09:34:25.644Z,6.68
2023-01-17T09:36:56.999Z,6.74
2023-01-17T09:39:27.642Z,6.79
2023-01-17T09:42:04.147Z,6.82
2023-01-17T09:44:42.343Z,6.85
2023-01-17T09:47:33.941Z,6.89
2023-01-17T09:50:16.845Z,6.88
2023-01-17T09:52:48.035Z,6.85
2023-01-17T09:55:20.246Z,6.82
2023-01-17T09:57:55.008Z,6.80
2023-01-17T10:00:38.583Z,6.77
2023-01-17T10:03:28.487Z,6.77
2023-01-17T10:06:34.687Z,6.75
2023-01-17T10:09:19.297Z,6.72
2023-01-17T10:12:03.939Z,6.71
2023-01-17T10:14:53.697Z,6.71
2023-01-17T10:17:38.693Z,6.79
2023-01-17T10:20:25.875Z,6.85
2023-01-17T10:23:12.678Z,6.90
2023-01-17T10:25:48.796Z,6.92
2023-01-17T10:28:24.589Z,6.97
2023-01-17T10:30:59.509Z,7.05
2023-01-17T10:33:36.332Z,7.16
2023-01-17T10:36:15.429Z,7.31
2023-01-17T10:38:48.953Z,7.46
2023-01-17T10:41:25.319Z,7.54
2023-01-17T10:44:02.471Z,7.56
2023-01-17T10:46:40.649Z,7.61
2023-01-17T10:49:18.858Z,7.67
2023-01-17T10:52:18.456Z,7.71
2023-01-17T10:55:05.193Z,7.78
2023-01-17T10:57:41.810Z,7.84
2023-01-17T11:00:43.915Z,7.89
2023-01-17T11:03:16.174Z,7.86
2023-01-17T11:05:46.775Z,7.86
2023-01-17T11:08:17.829Z,7.93
2023-01-17T11:10:51.003Z,8.04
2023-01-17T11:13:27.077Z,8.15
2023-01-17T11:16:00.849Z,8.25
2023-01-17T11:18:33.376Z,8.35
2023-01-17T11:21:15.366Z,8.42
2023-01-17T11:23:47.824Z,8.44
2023-01-17T11:26:28.117Z,8.40
2023-01-17T11:29:17.977Z,8.47
2023-01-17T11:31:48.403Z,8.57
2023-01-17T11:34:23.837Z,8.65
2023-01-17T11:37:11.181Z,8.71
2023-01-17T11:39:43.559Z,8.76
2023-01-17T11:42:34.839Z,8.80
2023-01-17T11:45:25.414Z,8.85
2023-01-17T11:48:14.005Z,8.91
2023-01-17T11:50:48.711Z,9.01
2023-01-17T11:53:23.618Z,9.10
2023-01-17T11:56:02.768Z,9.19
2023-01-17T11:58:36.217Z,9.28
2023-01-17T12:01:21.416Z,9.35
2023-01-17T12:04:16.683Z,9.41
2023-01-17T12:06:57.886Z,9.46
2023-01-17T12:09:40.359Z,9.50
2023-01-17T12:12:41.568Z,9.52
2023-01-17T12:15:24.441Z,9.52
2023-01-17T12:18:18.015Z,9.56
2023-01-17T12:20:57.658Z,9.63
2023-01-17T12:23:44.403Z,9.71
2023-01-17T12:26:31.078Z,9.81
2023-01-17T12:29:16.682Z,9.88
2023-01-17T12:31:57.938Z,9.89
2023-01-17T12:34:33.212Z,9.85
2023-01-17T12:37:16.602Z,9.67
2023-01-17T12:39:53.803Z,9.47
2023-01-17T12:42:27.408Z,9.30
2023-01-17T12:45:03.553Z,9.14
2023-01-17T12:47:38.545Z,9.05
2023-01-17T12:50:21.619Z,9.06
2023-01-17T12:53:00.498Z,8.99
2023-01-17T12:55:42.888Z,8.99
2023-01-17T12:58:21.719Z,8.98
2023-01-17T13:00:59.687Z,8.94
2023-01-17T13:03:41.312Z,8.96
2023-01-17T13:06:23.215Z,8.99
2023-01-17T13:08:59.454Z,9.01
2023-01-17T13:11:39.080Z,9.16
2023-01-17T13:14:11.822Z,9.31
2023-01-17T13:16:47.283Z,9.46
2023-01-17T13:19:27.170Z,9.62
2023-01-17T13:22:01.063Z,9.74
2023-01-17T13:24:43.467Z,9.86
2023-01-17T13:27:46.619Z,9.94
2023-01-17T13:30:49.580Z,9.96
2023-01-17T13:33:33.479Z,10.02
2023-01-17T13:36:19.333Z,10.08
2023-01-17T13:39:05.956Z,10.11
2023-01-17T13:41:52.005Z,10.20
2023-01-17T13:44:27.182Z,10.27
2023-01-17T13:47:00.949Z,10.29
2023-01-17T13:49:47.616Z,10.34
2023-01-17T13:52:33.553Z,10.32
2023-01-17T13:55:07.214Z,10.35
2023-01-17T13:57:43.707Z,10.34
2023-01-17T14:00:59.530Z,10.32
2023-01-17T14:04:07.284Z,10.31
2023-01-17T14:06:41.594Z,10.27
2023-01-17T14:09:20.556Z,10.22
2023-01-17T14:11:58.576Z,10.10
2023-01-17T14:14:56.973Z,9.98
2023-01-17T14:17:47.991Z,9.73
2023-01-17T14:20:41.515Z,9.56
2023-01-17T14:23:28.264Z,9.41
2023-01-17T14:26:13.409Z,9.27
2023-01-17T14:28:43.922Z,9.14
2023-01-17T14:31:16.653Z,9.02
2023-01-17T14:33:47.145Z,8.88
2023-01-17T14:36:26.980Z,8.78
2023-01-17T14:38:57.595Z,8.69
2023-01-17T14:41:30.454Z,8.59
2023-01-17T14:44:01.336Z,8.48
2023-01-17T14:46:33.598Z,8.38
2023-01-17T14:49:06.921Z,8.29
2023-01-17T14:51:38.981Z,8.21
2023-01-17T14:54:19.254Z,8.15
2023-01-17T14:56:49.763Z,8.04
2023-01-17T14:59:23.045Z,7.94
2023-01-17T15:02:07.286Z,7.86
2023-01-17T15:04:40.383Z,7.76
2023-01-17T15:07:18.808Z,7.68
2023-01-17T15:09:49.297Z,7.63
2023-01-17T15:12:20.052Z,7.57
2023-01-17T15:14:51.828Z,7.51
2023-01-17T15:17:24.867Z,7.45
2023-01-17T15:19:58.729Z,7.37
2023-01-17T15:22:30.179Z,7.30
2023-01-17T15:25:02.287Z,7.22
2023-01-17T15:27:33.317Z,7.21
2023-01-17T15:30:07.515Z,7.26
2023-01-17T15:32:39.405Z,7.27
2023-01-17T15:35:19.894Z,7.30
2023-01-17T15:37:56.074Z,7.33
2023-01-17T15:40:28.160Z,7.31
2023-01-17T15:43:01.402Z,7.25
2023-01-17T15:45:33.804Z,7.19
2023-01-17T15:48:37.739Z,7.10
2023-01-17T15:51:08.979Z,6.98
2023-01-17T15:53:41.376Z,6.91
2023-01-17T15:56:32.565Z,6.83
2023-01-17T15:59:19.057Z,6.74
2023-01-17T16:01:57.134Z,6.65
2023-01-17T16:04:37.252Z,6.59
2023-01-17T16:07:21.001Z,6.54
2023-01-17T16:09:51.715Z,6.49
2023-01-17T16:12:22.132Z,6.46
2023-01-17T16:15:10.727Z,6.42
2023-01-17T16:17:46.616Z,6.37
2023-01-17T16:20:22.270Z,6.35
2023-01-17T16:22:53.998Z,6.34
2023-01-17T16:25:29.077Z,6.32
2023-01-17T16:27:59.584Z,6.30
2023-01-17T16:30:31.782Z,6.27
2023-01-17T16:33:03.745Z,6.25
2023-01-17T16:35:35.430Z,6.22
2023-01-17T16:38:08.697Z,6.20
2023-01-17T16:40:44.510Z,6.16
2023-01-17T16:43:16.213Z,6.12
2023-01-17T16:45:49.384Z,6.08
2023-01-17T16:48:20.119Z,6.04
2023-01-17T16:50:53.255Z,6.00
2023-01-17T16:53:25.459Z,5.94
2023-01-17T16:55:55.915Z,5.88
2023-01-17T16:58:26.603Z,5.81
2023-01-17T17:00:57.854Z,5.78
2023-01-17T17:03:28.318Z,5.74
2023-01-17T17:06:01.136Z,5.70
2023-01-17T17:08:36.553Z,5.68
2023-01-17T17:11:15.560Z,5.67
2023-01-17T17:13:49.911Z,5.66
2023-01-17T17:16:22.449Z,5.65
2023-01-17T17:18:59.355Z,5.64
2023-01-17T17:21:31.845Z,5.62
2023-01-17T17:24:05.119Z,5.60
2023-01-17T17:26:37.673Z,5.58
2023-01-17T17:29:10.418Z,5.55
2023-01-17T17:31:42.046Z,5.51
2023-01-17T17:34:14.406Z,5.48
2023-01-17T17:36:43.352Z,5.43
2023-01-17T17:39:15.820Z,5.39
2023-01-17T17:41:47.086Z,5.38
2023-01-17T17:44:17.772Z,5.36
2023-01-17T17:46:49.307Z,5.34
2023-01-17T17:49:21.818Z,5.33
2023-01-17T17:51:53.450Z,5.33
2023-01-17T17:54:24.733Z,5.31
2023-01-17T17:56:55.952Z,5.30
2023-01-17T17:59:26.441Z,5.29
2023-01-17T18:01:57.096Z,5.27
2023-01-17T18:04:28.208Z,5.26
2023-01-17T18:06:59.600Z,5.24
2023-01-17T18:09:31.119Z,5.22
2023-01-17T18:12:02.951Z,5.21
2023-01-17T18:14:34.779Z,5.19
2023-01-17T18:17:05.235Z,5.18
2023-01-17T18:19:35.685Z,5.17
2023-01-17T18:22:08.203Z,5.16
2023-01-17T18:24:38.787Z,5.15
2023-01-17T18:27:10.605Z,5.15
2023-01-17T18:29:41.063Z,5.15
2023-01-17T18:32:13.220Z,5.14
2023-01-17T18:34:43.720Z,5.14
2023-01-17T18:37:14.230Z,5.13
2023-01-17T18:39:44.672Z,5.14
2023-01-17T18:42:15.135Z,5.16
2023-01-17T18:44:45.579Z,5.16
2023-01-17T18:47:16.577Z,5.17
2023-01-17T18:49:47.024Z,5.17
2023-01-17T18:52:19.681Z,5.16
2023-01-17T18:54:50.175Z,5.16
2023-01-17T18:57:20.642Z,5.14
2023-01-17T18:59:51.166Z,5.12
2023-01-17T19:02:21.685Z,5.10
2023-01-17T19:04:52.506Z,5.09
2023-01-17T19:07:24.215Z,5.10
2023-01-17T19:09:54.824Z,5.09
2023-01-17T19:12:25.741Z,5.08
2023-01-17T19:14:56.152Z,5.08
2023-01-17T19:17:26.676Z,5.07
2023-01-17T19:19:57.202Z,5.06
2023-01-17T19:22:27.851Z,5.06
2023-01-17T19:24:58.251Z,5.04
2023-01-17T19:27:28.705Z,5.03
2023-01-17T19:29:59.096Z,5.02
2023-01-17T19:32:29.608Z,5.00
2023-01-17T19:35:00.095Z,4.99
2023-01-17T19:37:30.596Z,4.97
2023-01-17T19:40:01.060Z,4.95
2023-01-17T19:42:31.971Z,4.93
2023-01-17T19:45:02.590Z,4.90
2023-01-17T19:47:33.996Z,4.87
2023-01-17T19:50:08.227Z,4.85
2023-01-17T19:52:38.978Z,4.84
2023-01-17T19:55:10.874Z,4.82
2023-01-17T19:57:41.536Z,4.80
2023-01-17T20:00:17.890Z,4.79
2023-01-17T20:02:48.664Z,4.78
2023-01-17T20:05:19.788Z,4.77
2023-01-17T20:07:50.848Z,4.75
2023-01-17T20:10:21.507Z,4.72
2023-01-17T20:12:52.236Z,4.70
2023-01-17T20:15:24.060Z,4.68
2023-01-17T20:17:54.911Z,4.66
2023-01-17T20:20:25.626Z,4.64
2023-01-17T20:22:56.058Z,4.63
2023-01-17T20:25:26.517Z,4.62
2023-01-17T20:27:57.139Z,4.61
2023-01-17T20:30:30.480Z,4.59
2023-01-17T20:33:01.336Z,4.58
2023-01-17T20:35:33.498Z,4.56
2023-01-17T20:38:03.932Z,4.53
2023-01-17T20:40:34.380Z,4.52
2023-01-17T20:43:04.904Z,4.49
2023-01-17T20:45:35.432Z,4.46
2023-01-17T20:48:06.102Z,4.44
2023-01-17T20:50:37.026Z,4.40
2023-01-17T20:53:07.444Z,4.37
2023-01-17T20:55:40.029Z,4.34
2023-01-17T20:58:10.582Z,4.31
2023-01-17T21:00:41.030Z,4.29
2023-01-17T21:03:11.460Z,4.29
2023-01-17T21:05:41.943Z,4.27
2023-01-17T21:08:17.770Z,4.25
2023-01-17T21:10:50.622Z,4.21
2023-01-17T21:13:21.503Z,4.19
2023-01-17T21:15:52.584Z,4.18
2023-01-17T21:18:25.319Z,4.14
2023-01-17T21:20:55.944Z,4.12
2023-01-17T21:23:29.448Z,4.10
2023-01-17T21:26:00.483Z,4.09
2023-01-17T21:28:32.592Z,4.08
2023-01-17T21:31:16.990Z,4.08
2023-01-17T21:33:47.858Z,4.09
2023-01-17T21:36:18.490Z,4.09
2023-01-17T21:38:52.145Z,4.09
2023-01-17T21:41:24.658Z,4.09
2023-01-17T21:43:56.117Z,4.08
2023-01-17T21:46:27.889Z,4.04
2023-01-17T21:48:58.635Z,4.03
2023-01-17T21:51:43.277Z,4.03
2023-01-17T21:54:14.209Z,4.03
2023-01-17T21:57:02.571Z,4.04
2023-01-17T21:59:34.468Z,4.08
2023-01-17T22:02:04.944Z,4.10
2023-01-17T22:04:36.195Z,4.10
2023-01-17T22:07:06.636Z,4.08
2023-01-17T22:09:37.157Z,4.07
2023-01-17T22:12:08.873Z,4.06
2023-01-17T22:14:40.163Z,4.05
2023-01-17T22:17:10.619Z,4.02
2023-01-17T22:19:41.092Z,4.00
2023-01-17T22:22:11.496Z,3.96
2023-01-17T22:24:41.977Z,3.93
2023-01-17T22:27:13.745Z,3.91
2023-01-17T22:29:44.332Z,3.90
2023-01-17T22:32:14.800Z,3.89
2023-01-17T22:34:45.236Z,3.89
2023-01-17T22:37:16.100Z,3.89
2023-01-17T22:39:46.528Z,3.90
2023-01-17T22:42:16.932Z,3.90
2023-01-17T22:44:47.851Z,3.90
2023-01-17T22:47:18.647Z,3.91
2023-01-17T22:49:49.136Z,3.92
2023-01-17T22:52:19.639Z,3.91
2023-01-17T22:54:51.316Z,3.93
2023-01-17T22:57:23.215Z,3.93
2023-01-17T22:59:53.667Z,3.94
2023-01-17T23:02:24.178Z,3.95
2023-01-17T23:04:54.660Z,3.94
2023-01-17T23:07:31.014Z,3.94
2023-01-17T23:10:01.429Z,3.92
2023-01-17T23:12:31.903Z,3.90
2023-01-17T23:15:25.331Z,3.87
2023-01-17T23:18:14.683Z,3.84
2023-01-17T23:20:45.092Z,3.80
2023-01-17T23:23:15.503Z,3.78
2023-01-17T23:25:45.890Z,3.78
2023-01-17T23:28:20.955Z,3.80
2023-01-17T23:30:51.374Z,3.84
2023-01-17T23:33:21.871Z,3.86
2023-01-17T23:35:52.345Z,3.91
2023-01-17T23:38:29.998Z,3.95
2023-01-17T23:41:23.173Z,3.98
2023-01-17T23:43:55.118Z,4.00
2023-01-17T23:46:27.205Z,4.03
2023-01-17T23:48:57.716Z,4.06
2023-01-17T23:51:28.217Z,4.08
2023-01-17T23:54:05.618Z,4.09
2023-01-17T23:56:36.285Z,4.11
2023-01-17T23:59:06.748Z,4.12
